Search for airport 
image banner adimage banner adimage banner ad
image banner ad

05PA - Philadelphia Market Street

Located in Philadelphia, United States

ICAO - 05PA, IATA -

Data provided by Airmate  

General information

Coordinates: N39°57'17" W75°10'42"
Elevation is 110 feet MSL.
Magnetic variation is -11° East
View others Airports in Pennsylvania

Operational data

Special qualification required
Current time UTC:
Current local time:
Weather at : KPHL - Philadelphia Intl ( 11 km )
METAR: KPHL 091354Z 24004KT 10SM BKN110 OVC160 12/04 A3010 RMK AO2 SLP194 T01170044
TAF: KPHL 091120Z 0912/1018 VRB04KT P6SM BKN200 FM092200 15006KT P6SM VCSH OVC025 FM100400 12005KT P6SM VCSH BKN025 WS020/21040KT FM100700 24005KT P6SM BKN035 WS020/23055KT FM101300 31010KT P6SM SCT030
View NOTAMs / SUP AIP / TFR affecting this airport [VIEW]
Communications frequencies: [VIEW]

Runways:

Airport contact information

Address: Philadelphia United States

Satellite view of 05PA